createdAt,value
2023-05-19T00:01:21.892Z,99318.91
2023-05-19T00:04:03.021Z,99324.47
2023-05-19T00:06:38.177Z,99321.78
2023-05-19T00:09:17.813Z,99328.09
2023-05-19T00:22:27.812Z,99325.28
2023-05-19T00:25:03.474Z,99320.88
2023-05-19T00:27:36.813Z,99320.97
2023-05-19T00:30:10.988Z,99322.91
2023-05-19T00:32:45.104Z,99319.47
2023-05-19T00:35:20.309Z,99317.75
2023-05-19T00:48:10.870Z,99305.31
2023-05-19T00:50:51.837Z,99306.19
2023-05-19T00:53:25.690Z,99314.22
2023-05-19T00:55:58.788Z,99302.53
2023-05-19T00:58:35.836Z,99301.69
2023-05-19T01:14:57.810Z,99310.22
2023-05-19T01:17:41.333Z,99311.94
2023-05-19T01:20:29.984Z,99302.94
2023-05-19T01:23:25.941Z,99304.66
2023-05-19T01:26:43.813Z,99310.88
2023-05-19T01:29:41.530Z,99310.00
2023-05-19T01:42:39.800Z,99303.16
2023-05-19T01:45:19.826Z,99307.66
2023-05-19T01:47:58.271Z,99302.47
2023-05-19T01:50:39.833Z,99295.50
2023-05-19T01:53:13.248Z,99300.09
2023-05-19T01:55:52.813Z,99296.88
2023-05-19T02:09:12.819Z,99307.25
2023-05-19T02:11:55.593Z,99303.78
2023-05-19T02:14:43.817Z,99305.06
2023-05-19T02:17:20.219Z,99306.97
2023-05-19T02:20:00.810Z,99306.97
2023-05-19T02:33:54.996Z,99295.22
2023-05-19T02:36:28.085Z,99287.94
2023-05-19T02:39:01.802Z,99294.16
2023-05-19T02:41:35.210Z,99291.59
2023-05-19T02:44:08.798Z,99300.56
2023-05-19T02:46:42.194Z,99294.53
2023-05-19T02:49:17.808Z,99296.44
2023-05-19T03:02:27.885Z,99282.00
2023-05-19T03:05:03.681Z,99283.91
2023-05-19T03:07:36.830Z,99285.81
2023-05-19T03:10:10.482Z,99280.69
2023-05-19T03:12:43.800Z,99277.44
2023-05-19T03:15:17.474Z,99286.41
2023-05-19T03:28:07.782Z,99281.81
2023-05-19T03:30:47.811Z,99285.66
2023-05-19T03:33:25.045Z,99278.56
2023-05-19T03:36:06.849Z,99283.03
2023-05-19T03:38:40.345Z,99282.19
2023-05-19T03:54:55.814Z,99289.66
2023-05-19T03:57:29.163Z,99287.94
2023-05-19T04:00:02.844Z,99286.19
2023-05-19T04:02:39.710Z,99286.41
2023-05-19T04:05:20.785Z,99285.63
2023-05-19T04:07:54.140Z,99284.69
2023-05-19T04:10:29.862Z,99280.19
2023-05-19T04:20:53.781Z,99281.44
2023-05-19T04:23:33.800Z,99293.06
2023-05-19T04:26:09.058Z,99291.34
2023-05-19T04:28:42.812Z,99300.16
2023-05-19T04:31:16.123Z,99290.41
2023-05-19T04:33:49.819Z,99295.75
2023-05-19T04:47:39.851Z,99303.75
2023-05-19T04:50:13.175Z,99302.03
2023-05-19T04:52:46.803Z,99306.44
2023-05-19T04:55:20.435Z,99306.44
2023-05-19T04:57:55.812Z,99309.84
2023-05-19T05:00:29.287Z,99305.38
2023-05-19T05:16:48.828Z,99307.47
2023-05-19T05:19:25.674Z,99302.06
2023-05-19T05:22:06.783Z,99309.97
2023-05-19T05:24:41.617Z,99305.31
2023-05-19T05:27:15.795Z,99299.75
2023-05-19T05:29:51.496Z,99299.59
2023-05-19T05:42:43.754Z,99297.78
2023-05-19T05:45:27.796Z,99306.53
2023-05-19T05:48:03.025Z,99306.47
2023-05-19T05:50:39.817Z,99306.38
2023-05-19T05:53:19.531Z,99298.06
2023-05-19T06:09:06.808Z,99302.16
2023-05-19T06:11:40.278Z,99313.72
2023-05-19T06:14:13.797Z,99319.06
2023-05-19T06:17:12.440Z,99318.97
2023-05-19T06:19:52.797Z,99325.94
2023-05-19T06:36:29.789Z,99319.09
2023-05-19T06:39:09.808Z,99316.50
2023-05-19T06:41:43.029Z,99324.53
2023-05-19T06:44:42.793Z,99316.63
2023-05-19T06:47:21.628Z,99313.38
2023-05-19T06:50:01.859Z,99315.41
2023-05-19T07:03:15.959Z,99320.59
2023-05-19T07:05:49.222Z,99321.41
2023-05-19T07:08:22.824Z,99312.59
2023-05-19T07:10:59.408Z,99309.91
2023-05-19T07:13:39.782Z,99311.09
2023-05-19T07:30:04.814Z,99299.75
2023-05-19T07:32:44.892Z,99297.81
2023-05-19T07:35:20.720Z,99295.75
2023-05-19T07:37:53.814Z,99290.00
2023-05-19T07:40:27.188Z,99294.28
2023-05-19T07:43:00.785Z,99279.75
2023-05-19T07:45:36.187Z,99291.25
2023-05-19T07:55:00.121Z,99286.34
2023-05-19T07:57:34.056Z,99290.00
2023-05-19T08:00:07.831Z,99295.38
2023-05-19T08:02:44.173Z,99305.50
2023-05-19T08:05:24.803Z,99290.47
2023-05-19T08:08:00.832Z,99294.38
2023-05-19T08:10:35.084Z,99298.91
2023-05-19T08:23:47.791Z,99279.84
2023-05-19T08:26:21.002Z,99283.91
2023-05-19T08:28:54.798Z,99294.06
2023-05-19T08:31:28.088Z,99299.50
2023-05-19T08:34:01.840Z,99295.25
2023-05-19T08:50:45.783Z,99259.53
2023-05-19T08:53:34.363Z,99279.94
2023-05-19T08:56:14.337Z,99265.53
2023-05-19T08:58:57.835Z,99272.75
2023-05-19T09:01:31.794Z,99276.28
2023-05-19T09:04:05.864Z,99273.94
2023-05-19T09:17:17.781Z,99257.19
2023-05-19T09:19:51.068Z,99251.81
2023-05-19T09:22:24.807Z,99251.81
2023-05-19T09:24:58.660Z,99252.69
2023-05-19T09:27:31.813Z,99252.56
2023-05-19T09:30:08.844Z,99259.41
2023-05-19T09:43:05.789Z,99259.66
2023-05-19T09:45:45.835Z,99260.41
2023-05-19T09:48:19.065Z,99259.91
2023-05-19T09:50:52.804Z,99261.28
2023-05-19T09:53:26.137Z,99273.22
2023-05-19T09:56:02.788Z,99280.09
2023-05-19T10:09:14.805Z,99255.72
2023-05-19T10:11:48.489Z,99255.38
2023-05-19T10:14:23.816Z,99249.84
2023-05-19T10:16:58.868Z,99245.81
2023-05-19T10:19:34.921Z,99241.13
2023-05-19T10:22:08.210Z,99238.56
2023-05-19T10:24:43.827Z,99246.41
2023-05-19T10:38:01.808Z,99240.53
2023-05-19T10:40:53.263Z,99241.72
2023-05-19T10:43:55.797Z,99231.66
2023-05-19T10:46:29.843Z,99235.22
2023-05-19T10:49:02.883Z,99238.53
2023-05-19T11:02:15.891Z,99231.56
2023-05-19T11:04:51.610Z,99221.25
2023-05-19T11:07:33.824Z,99230.63
2023-05-19T11:10:08.449Z,99233.94
2023-05-19T11:15:27.624Z,99242.75
2023-05-19T11:28:57.800Z,99246.78
2023-05-19T11:31:37.906Z,99240.88
2023-05-19T11:34:16.822Z,99245.75
2023-05-19T11:36:57.805Z,99244.22
2023-05-19T11:39:32.753Z,99245.22
2023-05-19T11:55:52.996Z,99251.16
2023-05-19T11:58:33.819Z,99249.44
2023-05-19T12:01:12.290Z,99256.78
2023-05-19T12:03:53.164Z,99246.28
2023-05-19T12:06:28.510Z,99259.63
2023-05-19T12:09:02.893Z,99255.06
2023-05-19T12:11:38.062Z,99258.50
2023-05-19T12:24:27.773Z,99253.06
2023-05-19T12:27:17.813Z,99241.06
2023-05-19T12:29:52.517Z,99242.16
2023-05-19T12:32:29.850Z,99243.25
2023-05-19T12:35:04.858Z,99240.56
2023-05-19T12:50:58.792Z,99226.09
2023-05-19T12:53:33.154Z,99230.75
2023-05-19T12:56:06.819Z,99229.31
2023-05-19T12:58:40.710Z,99231.41
2023-05-19T13:01:22.084Z,99235.50
2023-05-19T13:18:00.814Z,99239.09
2023-05-19T13:20:40.817Z,99232.13
2023-05-19T13:23:15.245Z,99232.81
2023-05-19T13:25:55.813Z,99227.44
2023-05-19T13:28:29.088Z,99230.88
2023-05-19T13:31:02.933Z,99236.25
2023-05-19T13:44:14.817Z,99226.00
2023-05-19T13:46:49.243Z,99226.25
2023-05-19T13:49:23.816Z,99230.19
2023-05-19T13:51:57.664Z,99221.50
2023-05-19T13:54:31.834Z,99230.69
2023-05-19T13:57:05.635Z,99227.28
2023-05-19T14:09:55.774Z,99233.44
2023-05-19T14:12:49.307Z,99229.16
2023-05-19T14:15:29.104Z,99230.50
2023-05-19T14:18:05.066Z,99236.16
2023-05-19T14:20:39.109Z,99232.97
2023-05-19T14:23:12.865Z,99236.84
2023-05-19T14:25:48.488Z,99228.91
2023-05-19T14:38:36.799Z,99239.84
2023-05-19T14:41:18.797Z,99234.69
2023-05-19T14:43:52.101Z,99229.56
2023-05-19T14:46:25.833Z,99230.56
2023-05-19T14:48:59.033Z,99230.56
2023-05-19T14:51:33.639Z,99235.94
2023-05-19T15:04:45.819Z,99239.34
2023-05-19T15:07:19.066Z,99240.47
2023-05-19T15:09:52.825Z,99236.19
2023-05-19T15:12:26.069Z,99240.72
2023-05-19T15:14:59.800Z,99247.81
2023-05-19T15:17:33.530Z,99241.56
2023-05-19T15:30:23.791Z,99239.38
2023-05-19T15:33:03.873Z,99234.22
2023-05-19T15:35:37.064Z,99236.19
2023-05-19T15:38:10.823Z,99232.75
2023-05-19T15:40:44.230Z,99232.00
2023-05-19T15:43:17.817Z,99230.56
2023-05-19T15:45:53.008Z,99230.69
2023-05-19T15:58:41.787Z,99229.72
2023-05-19T16:01:24.851Z,99222.72
2023-05-19T16:03:58.216Z,99228.34
2023-05-19T16:06:31.802Z,99227.59
2023-05-19T16:09:05.271Z,99220.72
2023-05-19T16:11:38.817Z,99220.09
2023-05-19T16:24:51.084Z,99233.66
2023-05-19T16:27:24.093Z,99223.00
2023-05-19T16:29:57.868Z,99229.47
2023-05-19T16:32:31.961Z,99220.69
2023-05-19T16:35:05.839Z,99226.28
2023-05-19T16:51:27.793Z,99229.69
2023-05-19T16:54:07.821Z,99232.47
2023-05-19T16:56:41.344Z,99232.59
2023-05-19T16:59:15.815Z,99237.13
2023-05-19T17:02:04.897Z,99243.59
2023-05-19T17:04:44.803Z,99241.88
2023-05-19T17:07:20.008Z,99240.38
2023-05-19T17:16:44.867Z,99233.53
2023-05-19T17:19:18.226Z,99236.22
2023-05-19T17:21:51.830Z,99244.53
2023-05-19T17:24:27.057Z,99247.31
2023-05-19T17:27:01.044Z,99238.63
2023-05-19T17:29:34.163Z,99243.28
2023-05-19T17:32:10.870Z,99240.72
2023-05-19T17:45:22.818Z,99233.69
2023-05-19T17:47:56.108Z,99228.56
2023-05-19T17:50:29.797Z,99225.13
2023-05-19T17:53:03.944Z,99236.69
2023-05-19T17:55:38.811Z,99236.69
2023-05-19T18:11:59.792Z,99252.25
2023-05-19T18:14:39.814Z,99251.59
2023-05-19T18:17:13.185Z,99248.16
2023-05-19T18:19:46.831Z,99243.84
2023-05-19T18:22:20.092Z,99244.84
2023-05-19T18:24:53.858Z,99250.31
2023-05-19T18:27:29.035Z,99247.63
2023-05-19T18:36:57.810Z,99248.94
2023-05-19T18:39:31.064Z,99254.44
2023-05-19T18:42:04.831Z,99251.00
2023-05-19T18:44:39.964Z,99244.88
2023-05-19T18:47:13.807Z,99252.06
2023-05-19T18:49:47.181Z,99252.19
2023-05-19T18:52:20.828Z,99253.16
2023-05-19T19:05:32.816Z,99252.09
2023-05-19T19:08:06.140Z,99247.81
2023-05-19T19:10:39.813Z,99250.59
2023-05-19T19:13:13.059Z,99247.09
2023-05-19T19:15:46.813Z,99243.53
2023-05-19T19:32:23.815Z,99254.94
2023-05-19T19:35:04.041Z,99251.50
2023-05-19T19:37:37.264Z,99247.22
2023-05-19T19:40:12.806Z,99258.06
2023-05-19T19:42:46.095Z,99253.75
2023-05-19T19:45:19.820Z,99260.94
2023-05-19T19:58:32.835Z,99264.81
2023-05-19T20:01:06.073Z,99263.94
2023-05-19T20:03:39.946Z,99264.06
2023-05-19T20:06:13.085Z,99274.78
2023-05-19T20:08:46.875Z,99268.69
2023-05-19T20:11:20.193Z,99265.13
2023-05-19T20:24:10.786Z,99271.69
2023-05-19T20:26:50.798Z,99272.53
2023-05-19T20:29:24.110Z,99265.44
2023-05-19T20:31:57.833Z,99269.13
2023-05-19T20:34:31.154Z,99271.88
2023-05-19T20:37:05.841Z,99271.81
2023-05-19T20:50:44.811Z,99258.81
2023-05-19T20:53:18.902Z,99263.44
2023-05-19T20:55:51.822Z,99253.66
2023-05-19T20:58:25.233Z,99250.34
2023-05-19T21:00:58.946Z,99255.81
2023-05-19T21:03:32.145Z,99247.97
2023-05-19T21:06:07.827Z,99245.53
2023-05-19T21:19:17.822Z,99258.91
2023-05-19T21:21:53.078Z,99250.00
2023-05-19T21:24:26.800Z,99247.44
2023-05-19T21:27:00.054Z,99250.97
2023-05-19T21:29:33.810Z,99254.59
2023-05-19T21:32:07.742Z,99248.53
2023-05-19T21:44:57.792Z,99247.19
2023-05-19T21:47:37.848Z,99244.63
2023-05-19T21:50:11.177Z,99250.28
2023-05-19T21:52:44.811Z,99254.88
2023-05-19T21:55:23.349Z,99252.44
2023-05-19T22:11:45.795Z,99239.22
2023-05-19T22:14:19.091Z,99233.94
2023-05-19T22:16:53.040Z,99229.56
2023-05-19T22:19:27.186Z,99230.63
2023-05-19T22:22:12.691Z,99228.03
2023-05-19T22:24:46.176Z,99228.91
2023-05-19T22:27:21.817Z,99226.31
2023-05-19T22:37:47.871Z,99231.91
2023-05-19T22:40:27.816Z,99241.75
2023-05-19T22:43:03.041Z,99240.88
2023-05-19T22:45:37.243Z,99247.19
2023-05-19T22:48:11.121Z,99235.53
2023-05-19T22:50:44.824Z,99237.44
2023-05-19T23:04:27.906Z,99219.69
2023-05-19T23:07:01.209Z,99228.69
2023-05-19T23:09:34.807Z,99224.38
2023-05-19T23:12:08.224Z,99231.53
2023-05-19T23:14:41.806Z,99229.81
2023-05-19T23:17:15.103Z,99225.47
2023-05-19T23:33:30.803Z,99219.53
2023-05-19T23:36:09.838Z,99211.72
2023-05-19T23:38:49.806Z,99213.63
2023-05-19T23:41:23.140Z,99214.69
2023-05-19T23:43:56.815Z,99208.59
2023-05-19T23:46:30.375Z,99209.63
2023-05-19T23:59:20.783Z,99205.69
